createdAt,value
2023-01-01T00:00:43.894Z,99396.66
2023-01-01T00:03:10.838Z,99395.94
2023-01-01T00:05:40.829Z,99391.81
2023-01-01T00:08:08.003Z,99393.75
2023-01-01T00:10:34.935Z,99396.50
2023-01-01T00:13:01.956Z,99394.19
2023-01-01T00:15:29.064Z,99397.06
2023-01-01T00:17:56.768Z,99387.47
2023-01-01T00:20:24.049Z,99384.91
2023-01-01T00:22:55.923Z,99383.47
2023-01-01T00:25:23.689Z,99382.84
2023-01-01T00:27:50.793Z,99383.69
2023-01-01T00:30:17.900Z,99382.97
2023-01-01T00:32:55.583Z,99382.13
2023-01-01T00:35:25.670Z,99377.78
2023-01-01T00:37:53.204Z,99379.91
2023-01-01T00:40:20.209Z,99383.53
2023-01-01T00:42:47.262Z,99376.56
2023-01-01T00:45:20.640Z,99378.47
2023-01-01T00:47:48.868Z,99366.44
2023-01-01T00:50:16.339Z,99369.06
2023-01-01T00:52:43.717Z,99363.06
2023-01-01T00:55:11.135Z,99353.44
2023-01-01T00:57:38.124Z,99341.31
2023-01-01T01:00:06.503Z,99333.53
2023-01-01T01:02:33.717Z,99318.63
2023-01-01T01:05:01.891Z,99314.41
2023-01-01T01:07:28.880Z,99314.56
2023-01-01T01:09:55.817Z,99318.97
2023-01-01T01:12:22.873Z,99319.19
2023-01-01T01:14:49.879Z,99331.66
2023-01-01T01:17:16.850Z,99321.97
2023-01-01T01:19:43.797Z,99323.97
2023-01-01T01:22:10.734Z,99333.69
2023-01-01T01:24:37.685Z,99324.09
2023-01-01T01:27:04.549Z,99327.81
2023-01-01T01:29:31.705Z,99317.56
2023-01-01T01:31:58.604Z,99322.75
2023-01-01T01:34:28.064Z,99322.84
2023-01-01T01:36:56.153Z,99312.50
2023-01-01T01:39:23.659Z,99313.47
2023-01-01T01:41:50.563Z,99312.75
2023-01-01T01:44:53.818Z,99307.47
2023-01-01T01:47:48.314Z,99306.00
2023-01-01T01:50:18.575Z,99299.78
2023-01-01T01:53:00.618Z,99295.34
2023-01-01T01:55:31.329Z,99283.31
2023-01-01T01:57:58.852Z,99293.78
2023-01-01T02:00:25.929Z,99294.00
2023-01-01T02:03:11.523Z,99294.81
2023-01-01T02:05:40.876Z,99295.66
2023-01-01T02:08:08.862Z,99295.66
2023-01-01T02:10:36.432Z,99293.22
2023-01-01T02:13:03.372Z,99295.88
2023-01-01T02:15:44.860Z,99288.94
2023-01-01T02:18:16.218Z,99291.78
2023-01-01T02:20:51.613Z,99303.06
2023-01-01T02:23:33.265Z,99303.06
2023-01-01T02:26:03.197Z,99290.84
2023-01-01T02:28:51.257Z,99296.34
2023-01-01T02:31:25.187Z,99292.84
2023-01-01T02:33:55.549Z,99284.94
2023-01-01T02:36:25.435Z,99290.22
2023-01-01T02:38:55.377Z,99289.44
2023-01-01T02:41:29.874Z,99292.94
2023-01-01T02:48:53.527Z,99294.63
2023-01-01T02:51:23.258Z,99284.09
2023-01-01T02:54:11.331Z,99288.59
2023-01-01T02:56:48.229Z,99286.59
2023-01-01T02:59:41.469Z,99283.25
2023-01-01T03:02:11.592Z,99281.31
2023-01-01T03:05:00.402Z,99273.41
2023-01-01T03:07:48.371Z,99276.19
2023-01-01T03:10:22.087Z,99269.97
2023-01-01T03:12:57.131Z,99272.59
2023-01-01T03:15:51.810Z,99274.38
2023-01-01T03:18:27.493Z,99273.53
2023-01-01T03:20:56.950Z,99271.63
2023-01-01T03:23:33.089Z,99285.13
2023-01-01T03:26:06.903Z,99287.25
2023-01-01T03:28:39.155Z,99284.69
2023-01-01T03:31:07.109Z,99286.41
2023-01-01T03:33:39.457Z,99279.44
2023-01-01T03:36:14.896Z,99288.09
2023-01-01T03:38:49.530Z,99293.38
2023-01-01T03:41:39.526Z,99294.31
2023-01-01T03:44:16.678Z,99295.88
2023-01-01T03:46:43.730Z,99294.31
2023-01-01T03:49:12.166Z,99294.22
2023-01-01T03:52:12.895Z,99286.19
2023-01-01T03:55:02.142Z,99290.59
2023-01-01T03:57:44.955Z,99286.19
2023-01-01T04:00:16.666Z,99282.69
2023-01-01T04:02:56.740Z,99283.53
2023-01-01T04:05:24.960Z,99275.63
2023-01-01T04:07:53.913Z,99278.28
2023-01-01T04:10:21.736Z,99277.34
2023-01-01T04:12:53.211Z,99278.91
2023-01-01T04:15:24.431Z,99272.06
2023-01-01T04:17:51.466Z,99272.78
2023-01-01T04:20:19.407Z,99279.75
2023-01-01T04:22:46.763Z,99273.53
2023-01-01T04:25:14.614Z,99275.09
2023-01-01T04:27:41.657Z,99275.97
2023-01-01T04:30:11.948Z,99271.63
2023-01-01T04:32:39.298Z,99268.03
2023-01-01T04:35:07.617Z,99272.25
2023-01-01T04:37:37.375Z,99278.59
2023-01-01T04:40:06.000Z,99274.03
2023-01-01T04:42:32.968Z,99276.69
2023-01-01T04:44:59.876Z,99270.69
2023-01-01T04:47:27.364Z,99266.97
2023-01-01T04:49:54.648Z,99271.41
2023-01-01T04:52:22.514Z,99271.41
2023-01-01T04:54:49.363Z,99278.38
2023-01-01T04:57:16.231Z,99287.97
2023-01-01T04:59:43.143Z,99290.59
2023-01-01T05:02:10.193Z,99290.72
2023-01-01T05:04:37.129Z,99299.34
2023-01-01T05:07:04.024Z,99304.63
2023-01-01T05:09:30.874Z,99302.84
2023-01-01T05:11:57.757Z,99298.63
2023-01-01T05:14:24.569Z,99303.69
2023-01-01T05:16:53.015Z,99297.56
2023-01-01T05:19:19.937Z,99295.88
2023-01-01T05:21:46.926Z,99300.94
2023-01-01T05:24:13.856Z,99298.41
2023-01-01T05:26:43.392Z,99298.28
2023-01-01T05:29:15.922Z,99295.78
2023-01-01T05:31:44.515Z,99300.06
2023-01-01T05:34:11.454Z,99298.28
2023-01-01T05:36:39.389Z,99298.28
2023-01-01T05:39:10.497Z,99297.34
2023-01-01T05:41:37.399Z,99291.34
2023-01-01T05:44:06.274Z,99292.06
2023-01-01T05:46:33.717Z,99288.59
2023-01-01T05:49:01.106Z,99293.78
2023-01-01T05:51:29.716Z,99293.78
2023-01-01T05:53:57.529Z,99300.84
2023-01-01T05:56:24.963Z,99302.63
2023-01-01T05:58:51.792Z,99305.13
2023-01-01T06:01:23.059Z,99306.00
2023-01-01T06:03:50.848Z,99305.03
2023-01-01T06:06:23.452Z,99306.00
2023-01-01T06:09:01.631Z,99305.25
2023-01-01T06:11:28.967Z,99306.84
2023-01-01T06:13:58.521Z,99301.56
2023-01-01T06:16:26.945Z,99296.41
2023-01-01T06:18:53.993Z,99299.03
2023-01-01T06:21:23.936Z,99301.69
2023-01-01T06:23:50.984Z,99304.19
2023-01-01T06:26:22.952Z,99291.13
2023-01-01T06:28:50.459Z,99302.41
2023-01-01T06:31:22.652Z,99299.78
2023-01-01T06:33:51.106Z,99302.41
2023-01-01T06:36:20.929Z,99300.63
2023-01-01T06:38:50.169Z,99298.06
2023-01-01T06:41:22.884Z,99300.72
2023-01-01T06:43:49.824Z,99307.69
2023-01-01T06:46:36.515Z,99307.69
2023-01-01T06:49:06.745Z,99317.25
2023-01-01T06:51:37.950Z,99318.25
2023-01-01T06:54:05.724Z,99319.91
2023-01-01T06:56:33.568Z,99319.91
2023-01-01T06:59:00.774Z,99325.31
2023-01-01T07:01:30.257Z,99326.88
2023-01-01T07:03:59.923Z,99332.16
2023-01-01T07:06:29.002Z,99329.50
2023-01-01T07:08:55.940Z,99345.22
2023-01-01T07:11:26.276Z,99344.41
2023-01-01T07:13:53.389Z,99343.44
2023-01-01T07:16:20.746Z,99341.63
2023-01-01T07:18:49.368Z,99340.78
2023-01-01T07:21:30.235Z,99344.50
2023-01-01T07:24:05.822Z,99351.34
2023-01-01T07:26:33.848Z,99350.63
2023-01-01T07:29:08.947Z,99354.19
2023-01-01T07:31:40.514Z,99359.38
2023-01-01T07:34:10.185Z,99355.78
2023-01-01T07:36:37.138Z,99359.25
2023-01-01T07:39:04.146Z,99363.69
2023-01-01T07:41:31.127Z,99361.06
2023-01-01T07:43:57.974Z,99365.50
2023-01-01T07:46:24.915Z,99365.38
2023-01-01T07:48:51.903Z,99369.94
2023-01-01T07:51:18.838Z,99365.50
2023-01-01T07:53:45.733Z,99369.09
2023-01-01T07:56:12.780Z,99369.81
2023-01-01T07:58:41.502Z,99372.44
2023-01-01T08:01:11.733Z,99373.31
2023-01-01T08:03:38.878Z,99378.56
2023-01-01T08:06:10.598Z,99381.34
2023-01-01T08:08:38.093Z,99380.38
2023-01-01T08:11:05.247Z,99382.78
2023-01-01T08:13:32.129Z,99380.88
2023-01-01T08:15:59.538Z,99380.66
2023-01-01T08:18:27.017Z,99386.56
2023-01-01T08:20:54.468Z,99381.09
2023-01-01T08:23:21.319Z,99380.88
2023-01-01T08:25:48.264Z,99382.44
2023-01-01T08:28:15.239Z,99382.31
2023-01-01T08:30:42.207Z,99381.25
2023-01-01T08:33:09.038Z,99376.41
2023-01-01T08:35:40.644Z,99384.03
2023-01-01T08:38:07.562Z,99385.94
2023-01-01T08:40:34.551Z,99387.84
2023-01-01T08:43:01.484Z,99394.91
2023-01-01T08:45:28.372Z,99390.50
2023-01-01T08:47:55.319Z,99390.84
2023-01-01T08:50:22.320Z,99388.63
2023-01-01T08:52:49.164Z,99392.09
2023-01-01T08:55:16.268Z,99389.75
2023-01-01T08:57:43.156Z,99403.47
2023-01-01T09:00:10.737Z,99401.56
2023-01-01T09:02:37.820Z,99405.91
2023-01-01T09:05:05.262Z,99421.59
2023-01-01T09:07:32.091Z,99424.06
2023-01-01T09:09:59.055Z,99424.78
2023-01-01T09:12:25.898Z,99438.50
2023-01-01T09:14:52.857Z,99439.00
2023-01-01T09:17:19.720Z,99442.50
2023-01-01T09:19:46.631Z,99440.59
2023-01-01T09:22:14.119Z,99437.66
2023-01-01T09:24:41.072Z,99437.41
2023-01-01T09:27:07.980Z,99441.75
2023-01-01T09:29:34.950Z,99450.50
2023-01-01T09:32:01.886Z,99442.38
2023-01-01T09:34:28.838Z,99443.19
2023-01-01T09:36:55.715Z,99442.03
2023-01-01T09:39:22.671Z,99447.09
2023-01-01T09:42:07.584Z,99451.31
2023-01-01T09:44:43.363Z,99459.13
2023-01-01T09:47:36.126Z,99458.91
2023-01-01T09:50:25.562Z,99460.59
2023-01-01T09:53:02.320Z,99466.47
2023-01-01T09:55:42.195Z,99469.03
2023-01-01T09:58:11.133Z,99479.38
2023-01-01T10:00:42.800Z,99476.81
2023-01-01T10:03:18.883Z,99481.50
2023-01-01T10:06:07.214Z,99488.44
2023-01-01T10:08:58.378Z,99485.59
2023-01-01T10:11:41.025Z,99479.16
2023-01-01T10:14:22.627Z,99489.50
2023-01-01T10:16:54.861Z,99490.13
2023-01-01T10:19:45.891Z,99485.47
2023-01-01T10:22:19.137Z,99490.53
2023-01-01T10:24:52.521Z,99500.03
2023-01-01T10:27:38.473Z,99497.25
2023-01-01T10:30:15.817Z,99502.31
2023-01-01T10:32:44.951Z,99504.75
2023-01-01T10:35:18.058Z,99504.53
2023-01-01T10:37:45.673Z,99505.25
2023-01-01T10:40:24.807Z,99503.34
2023-01-01T10:42:57.477Z,99500.59
2023-01-01T10:45:40.732Z,99502.91
2023-01-01T10:48:18.801Z,99508.06
2023-01-01T10:50:48.611Z,99513.25
2023-01-01T10:53:21.931Z,99506.03
2023-01-01T10:55:59.064Z,99503.31
2023-01-01T10:58:37.700Z,99508.34
2023-01-01T11:01:07.790Z,99516.19
2023-01-01T11:03:35.281Z,99506.50
2023-01-01T11:06:19.949Z,99511.56
2023-01-01T11:08:50.297Z,99509.72
2023-01-01T11:11:47.445Z,99511.66
2023-01-01T11:14:22.494Z,99519.69
2023-01-01T11:16:50.038Z,99525.72
2023-01-01T11:19:24.279Z,99519.47
2023-01-01T11:21:51.235Z,99519.13
2023-01-01T11:24:24.938Z,99524.19
2023-01-01T11:26:55.105Z,99511.81
2023-01-01T11:29:31.469Z,99516.38
2023-01-01T11:32:01.078Z,99512.66
2023-01-01T11:34:46.864Z,99508.13
2023-01-01T11:37:17.275Z,99513.16
2023-01-01T11:39:52.946Z,99509.56
2023-01-01T11:42:34.408Z,99512.06
2023-01-01T11:45:22.678Z,99511.84
2023-01-01T11:48:00.432Z,99498.75
2023-01-01T11:50:37.333Z,99500.22
2023-01-01T11:53:22.516Z,99505.28
2023-01-01T11:55:55.172Z,99504.19
2023-01-01T11:58:31.463Z,99507.59
2023-01-01T12:01:03.789Z,99510.09
2023-01-01T12:03:34.351Z,99520.22
2023-01-01T12:06:10.975Z,99523.47
2023-01-01T12:08:48.988Z,99522.94
2023-01-01T12:11:38.274Z,99517.28
2023-01-01T12:14:32.767Z,99515.97
2023-01-01T12:17:05.790Z,99516.47
2023-01-01T12:19:48.686Z,99512.38
2023-01-01T12:22:18.106Z,99511.91
2023-01-01T12:24:50.162Z,99497.75
2023-01-01T12:27:34.332Z,99501.59
2023-01-01T12:30:42.604Z,99492.56
2023-01-01T12:33:18.631Z,99510.50
2023-01-01T12:35:54.476Z,99513.75
2023-01-01T12:38:45.930Z,99510.50
2023-01-01T12:41:18.973Z,99511.22
2023-01-01T12:43:59.548Z,99519.88
2023-01-01T12:46:32.409Z,99517.75
2023-01-01T12:49:25.759Z,99517.25
2023-01-01T12:52:17.586Z,99526.16
2023-01-01T12:55:01.473Z,99529.75
2023-01-01T12:57:37.216Z,99537.44
2023-01-01T13:00:13.527Z,99532.09
2023-01-01T13:02:49.233Z,99540.63
2023-01-01T13:05:24.639Z,99541.69
2023-01-01T13:07:58.358Z,99544.72
2023-01-01T13:10:45.695Z,99547.22
2023-01-01T13:13:14.382Z,99550.72
2023-01-01T13:15:43.843Z,99550.91
2023-01-01T13:18:14.182Z,99555.59
2023-01-01T13:20:44.432Z,99559.44
2023-01-01T13:23:39.748Z,99565.13
2023-01-01T13:26:19.156Z,99561.19
2023-01-01T13:28:58.367Z,99564.41
2023-01-01T13:31:40.582Z,99569.47
2023-01-01T13:34:32.588Z,99580.59
2023-01-01T13:37:11.509Z,99581.06
2023-01-01T13:40:00.447Z,99580.84
2023-01-01T13:43:00.771Z,99576.03
2023-01-01T13:46:10.943Z,99581.81
2023-01-01T13:49:01.480Z,99578.91
2023-01-01T13:52:09.233Z,99583.13
2023-01-01T13:54:54.460Z,99582.91
2023-01-01T13:57:45.588Z,99582.78
2023-01-01T14:00:49.663Z,99588.81
2023-01-01T14:03:19.907Z,99585.94
2023-01-01T14:05:54.810Z,99584.00
2023-01-01T14:08:32.133Z,99590.72
2023-01-01T14:11:02.931Z,99588.06
2023-01-01T14:13:32.790Z,99588.81
2023-01-01T14:16:07.724Z,99596.75
2023-01-01T14:18:48.370Z,99592.41
2023-01-01T14:21:19.195Z,99602.16
2023-01-01T14:23:50.527Z,99596.03
2023-01-01T14:26:21.253Z,99602.16
2023-01-01T14:28:48.679Z,99609.25
2023-01-01T14:31:26.867Z,99619.75
2023-01-01T14:33:54.233Z,99630.47
2023-01-01T14:36:26.273Z,99635.66
2023-01-01T14:38:56.298Z,99632.41
2023-01-01T14:41:38.988Z,99638.41
2023-01-01T14:44:15.626Z,99642.88
2023-01-01T14:46:50.880Z,99634.09
2023-01-01T14:49:27.416Z,99643.00
2023-01-01T14:52:02.244Z,99640.56
2023-01-01T14:54:45.138Z,99644.06
2023-01-01T14:57:20.516Z,99649.28
2023-01-01T14:59:49.639Z,99654.66
2023-01-01T15:02:21.691Z,99658.16
2023-01-01T15:04:49.489Z,99671.41
2023-01-01T15:07:21.123Z,99672.38
2023-01-01T15:09:48.254Z,99680.81
2023-01-01T15:12:18.378Z,99682.50
2023-01-01T15:14:48.063Z,99685.06
2023-01-01T15:17:17.793Z,99698.88
2023-01-01T15:19:47.025Z,99694.44
2023-01-01T15:22:41.202Z,99697.72
2023-01-01T15:25:15.140Z,99702.78
2023-01-01T15:27:44.549Z,99706.13
2023-01-01T15:30:26.039Z,99705.91
2023-01-01T15:32:53.877Z,99709.28
2023-01-01T15:35:32.970Z,99711.78
2023-01-01T15:38:03.361Z,99717.84
2023-01-01T15:40:34.226Z,99718.56
2023-01-01T15:43:01.129Z,99718.44
2023-01-01T15:45:31.800Z,99734.09
2023-01-01T15:48:22.382Z,99728.69
2023-01-01T15:50:49.362Z,99740.25
2023-01-01T15:53:27.933Z,99745.53
2023-01-01T15:56:01.722Z,99747.03
2023-01-01T15:58:38.031Z,99747.56
2023-01-01T16:01:10.451Z,99755.66
2023-01-01T16:03:39.972Z,99757.22
2023-01-01T16:06:07.771Z,99746.38
2023-01-01T16:08:34.858Z,99751.44
2023-01-01T16:11:01.956Z,99753.13
2023-01-01T16:13:28.971Z,99751.81
2023-01-01T16:16:00.800Z,99749.06
2023-01-01T16:18:36.798Z,99753.13
2023-01-01T16:21:05.545Z,99757.50
2023-01-01T16:23:32.645Z,99750.25
2023-01-01T16:25:59.673Z,99761.47
2023-01-01T16:28:26.602Z,99762.06
2023-01-01T16:30:53.770Z,99759.94
2023-01-01T16:33:24.672Z,99766.03
2023-01-01T16:35:54.609Z,99762.06
2023-01-01T16:38:21.539Z,99760.16
2023-01-01T16:40:51.098Z,99766.28
2023-01-01T16:43:18.900Z,99764.25
2023-01-01T16:45:46.618Z,99763.06
2023-01-01T16:48:13.723Z,99777.88
2023-01-01T16:50:40.820Z,99770.78
2023-01-01T16:53:08.826Z,99775.72
2023-01-01T16:55:35.977Z,99783.78
2023-01-01T16:58:46.979Z,99786.19
2023-01-01T17:00:58.840Z,99776.19
2023-01-01T17:03:25.975Z,99781.50
2023-01-01T17:05:53.067Z,99773.78
2023-01-01T17:08:20.234Z,99772.81
2023-01-01T17:10:47.322Z,99776.19
2023-01-01T17:13:15.576Z,99776.19
2023-01-01T17:15:42.581Z,99774.47
2023-01-01T17:18:11.421Z,99773.66
2023-01-01T17:20:38.366Z,99766.66
2023-01-01T17:23:05.410Z,99779.06
2023-01-01T17:25:32.445Z,99777.41
2023-01-01T17:27:59.390Z,99766.03
2023-01-01T17:30:26.455Z,99764.25
2023-01-01T17:32:53.407Z,99766.91
2023-01-01T17:35:20.605Z,99763.53
2023-01-01T17:37:47.628Z,99767.75
2023-01-01T17:40:14.674Z,99761.13
2023-01-01T17:42:41.875Z,99767.63
2023-01-01T17:45:10.047Z,99757.44
2023-01-01T17:47:37.749Z,99763.22
2023-01-01T17:50:05.966Z,99756.91
2023-01-01T17:52:33.239Z,99764.53
2023-01-01T17:55:01.904Z,99769.59
2023-01-01T17:57:29.465Z,99776.34
2023-01-01T17:59:59.579Z,99773.44
2023-01-01T18:02:27.033Z,99775.00
2023-01-01T18:04:57.809Z,99771.03
2023-01-01T18:07:25.325Z,99773.44
2023-01-01T18:09:52.404Z,99777.66
2023-01-01T18:12:19.533Z,99781.88
2023-01-01T18:14:47.521Z,99792.50
2023-01-01T18:17:14.654Z,99796.09
2023-01-01T18:19:41.930Z,99793.22
2023-01-01T18:22:09.434Z,99804.53
2023-01-01T18:24:36.799Z,99807.94
2023-01-01T18:27:03.950Z,99821.06
2023-01-01T18:29:31.167Z,99814.91
2023-01-01T18:31:58.156Z,99818.91
2023-01-01T18:34:25.101Z,99815.66
2023-01-01T18:36:55.049Z,99816.84
2023-01-01T18:39:26.952Z,99823.16
2023-01-01T18:42:24.810Z,99826.03
2023-01-01T18:44:56.218Z,99829.19
2023-01-01T18:47:25.310Z,99834.59
2023-01-01T18:50:17.347Z,99834.97
2023-01-01T18:52:44.484Z,99847.38
2023-01-01T18:55:15.050Z,99841.22
2023-01-01T18:57:50.478Z,99855.00
2023-01-01T19:00:18.826Z,99853.16
2023-01-01T19:02:57.173Z,99858.38
2023-01-01T19:05:28.414Z,99849.41
2023-01-01T19:08:08.973Z,99863.44
2023-01-01T19:10:48.239Z,99860.88
2023-01-01T19:13:24.075Z,99859.94
2023-01-01T19:16:03.027Z,99867.91
2023-01-01T19:18:32.126Z,99868.75
2023-01-01T19:21:23.973Z,99862.44
2023-01-01T19:23:52.295Z,99867.28
2023-01-01T19:26:26.743Z,99869.09
2023-01-01T19:29:18.477Z,99866.44
2023-01-01T19:31:51.212Z,99866.44
2023-01-01T19:34:19.516Z,99871.16
2023-01-01T19:36:47.472Z,99876.47
2023-01-01T19:39:17.139Z,99879.13
2023-01-01T19:41:45.978Z,99877.56
2023-01-01T19:44:16.366Z,99890.06
2023-01-01T19:46:47.444Z,99888.75
2023-01-01T19:49:15.135Z,99887.66
2023-01-01T19:51:45.081Z,99893.81
2023-01-01T19:54:12.792Z,99902.00
2023-01-01T19:56:40.638Z,99905.13
2023-01-01T19:59:08.776Z,99915.72
2023-01-01T20:01:36.477Z,99918.88
2023-01-01T20:04:04.714Z,99915.03
2023-01-01T20:06:36.706Z,99911.16
2023-01-01T20:09:04.248Z,99915.41
2023-01-01T20:11:32.416Z,99931.94
2023-01-01T20:13:59.848Z,99937.00
2023-01-01T20:16:27.608Z,99942.19
2023-01-01T20:19:00.628Z,99940.38
2023-01-01T20:21:46.672Z,99947.03
2023-01-01T20:24:15.415Z,99952.22
2023-01-01T20:26:42.857Z,99945.56
2023-01-01T20:29:22.574Z,99956.25
2023-01-01T20:31:53.255Z,99952.78
2023-01-01T20:34:21.261Z,99947.34
2023-01-01T20:37:08.032Z,99954.69
2023-01-01T20:39:36.865Z,99948.81
2023-01-01T20:42:04.850Z,99959.19
2023-01-01T20:44:32.251Z,99948.34
2023-01-01T20:47:00.639Z,99951.84
2023-01-01T20:49:28.954Z,99951.84
2023-01-01T20:51:56.352Z,99958.84
2023-01-01T20:54:24.195Z,99949.91
2023-01-01T20:56:53.620Z,99959.81
2023-01-01T20:59:35.410Z,99964.28
2023-01-01T21:02:08.849Z,99967.16
2023-01-01T21:04:39.667Z,99970.75
2023-01-01T21:07:09.873Z,99967.16
2023-01-01T21:09:38.453Z,99967.16
2023-01-01T21:12:06.514Z,99968.97
2023-01-01T21:14:35.323Z,99968.00
2023-01-01T21:17:29.996Z,99967.38
2023-01-01T21:19:59.945Z,99963.88
2023-01-01T21:22:28.689Z,99968.22
2023-01-01T21:25:16.803Z,99966.75
2023-01-01T21:27:46.732Z,99976.88
2023-01-01T21:30:15.147Z,99980.28
2023-01-01T21:32:51.019Z,99986.66
2023-01-01T21:35:33.633Z,99986.91
2023-01-01T21:38:04.909Z,99983.00
2023-01-01T21:40:36.763Z,99990.72
2023-01-01T21:43:14.373Z,99981.81
2023-01-01T21:45:46.699Z,99995.69
2023-01-01T21:48:24.090Z,99996.53
2023-01-01T21:50:55.245Z,100004.41
2023-01-01T21:53:28.426Z,99999.09
2023-01-01T21:55:58.224Z,100000.75
2023-01-01T21:58:48.733Z,100009.69
2023-01-01T22:01:39.382Z,100008.94
2023-01-01T22:04:10.491Z,100009.94
2023-01-01T22:06:48.608Z,100009.97
2023-01-01T22:09:34.995Z,100010.06
2023-01-01T22:12:16.164Z,100015.53
2023-01-01T22:14:50.228Z,100018.81
2023-01-01T22:17:22.204Z,100013.78
2023-01-01T22:19:50.820Z,100013.94
2023-01-01T22:22:21.756Z,100016.59
2023-01-01T22:24:57.989Z,100025.31
2023-01-01T22:27:30.972Z,100025.94
2023-01-01T22:30:13.787Z,100032.72
2023-01-01T22:32:43.969Z,100034.22
2023-01-01T22:35:21.199Z,100041.84
2023-01-01T22:37:54.150Z,100042.56
2023-01-01T22:40:33.353Z,100049.13
2023-01-01T22:43:06.902Z,100048.81
2023-01-01T22:45:38.168Z,100048.34
2023-01-01T22:48:07.757Z,100060.44
2023-01-01T22:50:35.478Z,100059.78
2023-01-01T22:53:02.692Z,100057.66
2023-01-01T22:55:29.967Z,100065.88
2023-01-01T22:57:58.279Z,100063.72
2023-01-01T23:00:26.740Z,100057.16
2023-01-01T23:02:54.040Z,100064.44
2023-01-01T23:05:22.458Z,100066.47
2023-01-01T23:07:49.945Z,100060.63
2023-01-01T23:10:19.988Z,100062.06
2023-01-01T23:12:48.584Z,100077.25
2023-01-01T23:15:34.363Z,100088.00
2023-01-01T23:18:01.378Z,100095.28
2023-01-01T23:20:28.542Z,100094.72
2023-01-01T23:22:57.534Z,100093.34
2023-01-01T23:25:29.378Z,100090.03
2023-01-01T23:27:57.025Z,100093.91
2023-01-01T23:30:24.123Z,100095.88
2023-01-01T23:32:51.334Z,100096.19
2023-01-01T23:35:18.910Z,100090.34
2023-01-01T23:37:45.902Z,100093.28
2023-01-01T23:40:13.346Z,100093.34
2023-01-01T23:42:40.636Z,100095.25
2023-01-01T23:45:07.947Z,100097.34
2023-01-01T23:47:35.177Z,100094.78
2023-01-01T23:50:02.859Z,100101.94
2023-01-01T23:52:30.124Z,100093.56
2023-01-01T23:54:57.688Z,100109.59
2023-01-01T23:57:24.947Z,100105.34
2023-01-01T23:59:52.329Z,100097.69
